Time;durP1;ratioP1;P1;durP2;ratioP2;P2;SDS_P1;SDS_P2;PMS_P1;PMS_P2;Temp;Humidity;BMP_temperature;BMP_pressure;BME280_temperature;BME280_humidity;BME280_pressure;Samples;Min_cycle;Max_cycle;Signal;HPM_P1;HPM_P2
2022/11/23 00:00:05;;;;;;;1.90;0.40;;;23.60;79.40;;;;;;5070966;28;20203;-83
2022/11/23 00:02:35;;;;;;;2.08;0.55;;;23.50;78.50;;;;;;5060206;28;20481;-82
2022/11/23 00:05:07;;;;;;;1.40;0.55;;;23.70;79.50;;;;;;5071310;28;20249;-83
2022/11/23 00:07:41;;;;;;;3.83;0.60;;;23.80;77.70;;;;;;5071433;28;20279;-82
2022/11/23 00:10:13;;;;;;;2.53;0.52;;;23.60;76.50;;;;;;5071224;28;20247;-82
2022/11/23 00:12:43;;;;;;;2.42;0.50;;;23.50;76.90;;;;;;5070337;28;20199;-82
2022/11/23 00:15:16;;;;;;;2.65;0.68;;;23.40;77.60;;;;;;5069132;28;20211;-82
2022/11/23 00:17:50;;;;;;;3.03;0.40;;;23.40;79.00;;;;;;5062113;28;20639;-83
2022/11/23 00:20:21;;;;;;;0.85;0.35;;;23.50;77.50;;;;;;5062795;28;20677;-82
2022/11/23 00:22:54;;;;;;;1.38;0.50;;;23.70;77.30;;;;;;5063144;28;20234;-81
2022/11/23 00:25:26;;;;;;;3.67;0.50;;;23.80;76.30;;;;;;5061432;28;20221;-83
2022/11/23 00:27:56;;;;;;;1.30;0.70;;;23.80;75.80;;;;;;5070219;28;20192;-83
2022/11/23 00:30:28;;;;;;;1.20;0.40;;;23.80;77.30;;;;;;5067206;28;20203;-81
2022/11/23 00:32:58;;;;;;;0.52;0.43;;;23.90;77.60;;;;;;5053554;28;20220;-79
2022/11/23 00:35:29;;;;;;;4.15;0.50;;;23.90;75.30;;;;;;5054697;28;20667;-80
2022/11/23 00:38:03;;;;;;;1.25;0.50;;;24.10;75.50;;;;;;5063579;28;20243;-84
2022/11/23 00:40:34;;;;;;;3.10;0.70;;;23.80;74.90;;;;;;5066383;28;20532;-83
2022/11/23 00:43:04;;;;;;;1.27;0.57;;;23.90;76.50;;;;;;5049787;28;20224;-83
2022/11/23 00:45:35;;;;;;;1.42;0.40;;;23.80;75.70;;;;;;5053803;28;20766;-83
2022/11/23 00:48:07;;;;;;;1.60;0.50;;;23.70;75.70;;;;;;5053089;28;20192;-83
2022/11/23 00:50:38;;;;;;;2.30;0.50;;;23.80;75.50;;;;;;5056166;28;20217;-84
2022/11/23 00:53:12;;;;;;;1.30;0.60;;;23.70;75.40;;;;;;5083211;28;20251;-84
2022/11/23 00:55:43;;;;;;;3.72;0.60;;;24.00;76.60;;;;;;5070968;28;20201;-84
2022/11/23 00:58:14;;;;;;;1.10;0.47;;;24.20;75.70;;;;;;5061860;28;20325;-84
2022/11/23 01:00:45;;;;;;;5.55;0.70;;;24.40;76.00;;;;;;5064590;28;22112;-84
2022/11/23 01:03:17;;;;;;;0.70;0.40;;;24.70;73.50;;;;;;5063677;28;20212;-85
2022/11/23 01:05:47;;;;;;;1.30;0.35;;;24.50;73.70;;;;;;5058584;28;20192;-84
2022/11/23 01:08:20;;;;;;;2.65;0.50;;;24.70;74.10;;;;;;5052135;28;20214;-84
2022/11/23 01:10:51;;;;;;;0.93;0.60;;;24.90;71.80;;;;;;5060945;28;20577;-84
2022/11/23 01:13:21;;;;;;;1.58;0.70;;;24.70;72.30;;;;;;5061834;28;20214;-84
2022/11/23 01:15:53;;;;;;;1.83;0.60;;;24.80;72.00;;;;;;5062622;28;20215;-84
2022/11/23 01:18:24;;;;;;;0.75;0.60;;;24.80;70.50;;;;;;5051563;28;20606;-85
2022/11/23 01:20:55;;;;;;;1.20;0.50;;;24.70;70.50;;;;;;5054282;28;20227;-85
2022/11/23 01:23:30;;;;;;;1.52;0.50;;;24.90;70.90;;;;;;5051438;28;20285;-85
2022/11/23 01:26:05;;;;;;;0.95;0.50;;;25.00;70.60;;;;;;5064332;28;20278;-85
2022/11/23 01:28:37;;;;;;;3.45;0.60;;;25.10;69.50;;;;;;5070536;28;20184;-84
2022/11/23 01:31:10;;;;;;;0.70;0.40;;;24.90;69.00;;;;;;5067740;28;20206;-84
2022/11/23 01:33:41;;;;;;;1.58;0.60;;;24.80;68.00;;;;;;5070497;28;20306;-87
2022/11/23 01:36:13;;;;;;;1.80;0.70;;;24.80;68.70;;;;;;5073369;28;20212;-86
2022/11/23 01:38:47;;;;;;;1.83;0.50;;;24.90;69.50;;;;;;5081736;28;20262;-86
2022/11/23 01:41:19;;;;;;;1.80;0.70;;;25.00;67.90;;;;;;5073273;28;20234;-86
2022/11/23 01:43:50;;;;;;;2.17;0.60;;;25.00;67.80;;;;;;5066265;28;20200;-85
2022/11/23 01:46:22;;;;;;;1.95;0.60;;;25.10;68.30;;;;;;5052262;28;20259;-83
2022/11/23 01:49:04;;;;;;;2.47;0.60;;;25.40;66.90;;;;;;5081219;28;20278;-81
2022/11/23 01:51:46;;;;;;;1.33;0.40;;;25.60;66.40;;;;;;5061550;28;20207;-85
2022/11/23 01:54:46;;;;;;;1.75;0.50;;;25.70;65.40;;;;;;5075301;28;20251;-83
2022/11/23 01:57:47;;;;;;;1.48;0.50;;;25.90;66.00;;;;;;5080762;28;20222;-83
2022/11/23 02:00:37;;;;;;;3.13;0.40;;;25.90;63.50;;;;;;5077557;28;20472;-85
2022/11/23 02:03:16;;;;;;;1.45;0.20;;;25.80;64.70;;;;;;5084965;28;20233;-83
2022/11/23 02:06:03;;;;;;;1.77;0.50;;;26.00;65.90;;;;;;5079709;28;20191;-83
2022/11/23 02:08:35;;;;;;;1.63;0.57;;;25.90;64.10;;;;;;5072753;28;20192;-83
2022/11/23 02:11:08;;;;;;;0.60;0.30;;;26.20;64.50;;;;;;5071513;28;20218;-83
2022/11/23 02:13:39;;;;;;;1.00;0.45;;;26.20;62.90;;;;;;5069184;28;20196;-84
2022/11/23 02:16:12;;;;;;;0.88;0.40;;;26.50;62.30;;;;;;5067161;28;20197;-83
2022/11/23 02:18:46;;;;;;;1.08;0.47;;;26.20;61.10;;;;;;5075333;28;20196;-85
2022/11/23 02:21:21;;;;;;;0.60;0.40;;;26.30;61.40;;;;;;5067742;28;20215;-84
2022/11/23 02:24:00;;;;;;;3.08;0.80;;;26.40;60.60;;;;;;5063149;28;20198;-86
2022/11/23 02:26:36;;;;;;;1.95;0.40;;;26.30;61.00;;;;;;5070634;28;20309;-86
2022/11/23 02:29:11;;;;;;;0.95;0.50;;;26.10;61.00;;;;;;5070784;28;20255;-86
2022/11/23 02:31:42;;;;;;;1.08;0.40;;;26.40;61.00;;;;;;5076466;28;20207;-86
2022/11/23 02:34:13;;;;;;;4.60;1.00;;;26.70;60.30;;;;;;5068052;28;20251;-86
2022/11/23 02:36:46;;;;;;;0.60;0.50;;;26.80;59.10;;;;;;5072095;28;20208;-84
2022/11/23 02:39:27;;;;;;;1.05;0.47;;;26.80;58.60;;;;;;5060435;28;20548;-86
2022/11/23 02:42:01;;;;;;;0.70;0.60;;;26.70;59.00;;;;;;5068697;28;20227;-85
2022/11/23 02:44:42;;;;;;;0.55;0.40;;;26.90;58.90;;;;;;5065222;28;20648;-85
2022/11/23 02:47:13;;;;;;;0.85;0.40;;;27.10;58.80;;;;;;5076655;28;20192;-86
2022/11/23 02:49:48;;;;;;;2.50;0.47;;;27.30;58.60;;;;;;5073556;28;20194;-86
2022/11/23 02:52:30;;;;;;;1.70;0.40;;;27.40;58.60;;;;;;5065265;28;20286;-86
2022/11/23 02:55:01;;;;;;;3.47;0.70;;;27.60;57.90;;;;;;5053467;28;20207;-85
2022/11/23 02:57:33;;;;;;;1.67;0.50;;;27.70;55.50;;;;;;5049649;28;20189;-84
2022/11/23 03:00:04;;;;;;;1.63;0.50;;;27.50;57.30;;;;;;5046342;28;20300;-83
2022/11/23 03:02:37;;;;;;;0.73;0.30;;;27.50;56.80;;;;;;5055133;28;20235;-83
2022/11/23 03:05:09;;;;;;;2.58;0.40;;;27.30;56.70;;;;;;5057447;28;20196;-82
2022/11/23 03:07:39;;;;;;;1.85;0.32;;;27.50;57.30;;;;;;5049502;28;20656;-83
2022/11/23 03:10:11;;;;;;;1.38;0.47;;;27.90;56.90;;;;;;5052389;28;20215;-83
2022/11/23 03:12:45;;;;;;;1.95;0.35;;;28.00;54.80;;;;;;5048213;28;20199;-83
2022/11/23 03:15:15;;;;;;;2.75;0.35;;;28.00;55.00;;;;;;5052969;28;20188;-83
2022/11/23 03:17:46;;;;;;;1.77;0.30;;;28.20;54.10;;;;;;5052502;28;20197;-83
2022/11/23 03:20:17;;;;;;;0.73;0.30;;;28.00;54.40;;;;;;5032415;28;20204;-82
2022/11/23 03:22:48;;;;;;;1.42;0.57;;;28.20;55.50;;;;;;5047531;28;20224;-83
2022/11/23 03:25:19;;;;;;;2.13;0.38;;;28.10;54.70;;;;;;5038329;28;20831;-83
2022/11/23 03:27:51;;;;;;;0.52;0.30;;;28.10;54.00;;;;;;5033280;28;20221;-82
2022/11/23 03:30:22;;;;;;;0.60;0.43;;;28.10;53.10;;;;;;5038369;28;20189;-78
2022/11/23 03:32:53;;;;;;;0.98;0.32;;;28.30;53.80;;;;;;5033904;28;20318;-84
2022/11/23 03:35:25;;;;;;;1.73;0.47;;;28.10;53.10;;;;;;5050103;28;20685;-82
2022/11/23 03:37:56;;;;;;;0.75;0.40;;;28.00;53.40;;;;;;5038772;28;20223;-84
2022/11/23 03:40:27;;;;;;;1.05;0.30;;;28.50;54.80;;;;;;5040492;28;20235;-84
2022/11/23 03:43:00;;;;;;;0.38;0.30;;;28.60;53.40;;;;;;5040438;28;20343;-85
2022/11/23 03:45:31;;;;;;;1.17;0.40;;;28.80;52.60;;;;;;5045311;28;20535;-85
2022/11/23 03:48:01;;;;;;;0.68;0.30;;;28.70;52.30;;;;;;5051840;28;20207;-84
2022/11/23 03:50:32;;;;;;;1.15;0.28;;;29.10;51.80;;;;;;5052206;28;20192;-85
2022/11/23 03:53:03;;;;;;;0.45;0.20;;;29.30;52.00;;;;;;5055688;28;20228;-84
2022/11/23 03:55:34;;;;;;;1.67;0.30;;;29.60;51.20;;;;;;5070959;28;20198;-84
2022/11/23 03:58:06;;;;;;;0.98;0.22;;;29.70;51.10;;;;;;5069577;28;20709;-85
2022/11/23 04:00:37;;;;;;;0.60;0.20;;;29.60;50.70;;;;;;5058607;28;20196;-83
2022/11/23 04:03:08;;;;;;;0.32;0.20;;;29.70;51.50;;;;;;5076947;28;20287;-82
2022/11/23 04:05:39;;;;;;;0.55;0.30;;;29.30;51.10;;;;;;5072589;28;20202;-83
2022/11/23 04:08:11;;;;;;;1.35;0.32;;;29.20;51.10;;;;;;5067566;28;20197;-82
2022/11/23 04:10:42;;;;;;;1.00;0.40;;;29.10;50.80;;;;;;5065007;28;20205;-81
2022/11/23 04:13:15;;;;;;;2.00;0.30;;;29.00;50.10;;;;;;5069476;28;20200;-83
2022/11/23 04:15:46;;;;;;;0.93;0.40;;;29.10;49.90;;;;;;5059406;28;20208;-82
2022/11/23 04:18:17;;;;;;;1.55;0.70;;;29.20;50.50;;;;;;5068518;28;20207;-83
2022/11/23 04:20:48;;;;;;;3.22;0.60;;;29.10;49.10;;;;;;5068955;28;20206;-83
2022/11/23 04:23:19;;;;;;;0.40;0.30;;;28.80;50.50;;;;;;5062277;28;20232;-82
2022/11/23 04:25:50;;;;;;;1.55;0.20;;;29.00;50.80;;;;;;5073259;28;20216;-82
2022/11/23 04:28:24;;;;;;;0.60;0.20;;;28.80;50.20;;;;;;5070240;28;20279;-82
2022/11/23 04:30:57;;;;;;;2.47;0.40;;;28.90;51.00;;;;;;5068650;28;20215;-82
2022/11/23 04:33:30;;;;;;;0.43;0.30;;;29.30;50.70;;;;;;5072730;28;20565;-82
2022/11/23 04:36:01;;;;;;;0.60;0.17;;;29.70;49.50;;;;;;5067934;28;20212;-83
2022/11/23 04:38:33;;;;;;;1.27;0.35;;;29.70;49.40;;;;;;5070654;28;20242;-83
2022/11/23 04:41:04;;;;;;;2.05;0.40;;;29.50;50.20;;;;;;5067083;28;20211;-75
2022/11/23 04:43:38;;;;;;;1.20;0.30;;;30.00;50.10;;;;;;5063263;28;20218;-82
2022/11/23 04:46:09;;;;;;;0.68;0.30;;;30.30;48.60;;;;;;5070848;28;20218;-82
2022/11/23 04:48:40;;;;;;;2.15;0.43;;;30.40;47.20;;;;;;5050479;28;20231;-82
2022/11/23 04:51:11;;;;;;;1.10;0.30;;;30.40;49.10;;;;;;5051572;28;20202;-83
2022/11/23 04:53:41;;;;;;;0.68;0.28;;;30.30;48.30;;;;;;5060291;28;20223;-83
2022/11/23 04:56:12;;;;;;;0.57;0.20;;;30.60;48.70;;;;;;5070139;28;20211;-83
2022/11/23 04:58:45;;;;;;;0.73;0.30;;;30.70;48.40;;;;;;5062168;28;20227;-82
2022/11/23 05:01:16;;;;;;;0.43;0.25;;;30.50;47.70;;;;;;5066641;28;20576;-81
2022/11/23 05:03:47;;;;;;;0.82;0.25;;;30.20;46.70;;;;;;5068588;28;20230;-81
2022/11/23 05:06:17;;;;;;;4.22;0.45;;;30.60;47.80;;;;;;5067494;28;20218;-81
2022/11/23 05:08:48;;;;;;;1.23;0.30;;;30.50;47.30;;;;;;5067149;28;20202;-81
2022/11/23 05:11:19;;;;;;;2.58;0.40;;;31.00;47.30;;;;;;5059384;28;20207;-81
2022/11/23 05:13:52;;;;;;;0.52;0.20;;;31.50;47.50;;;;;;5087873;28;20230;-83
2022/11/23 05:16:23;;;;;;;1.40;0.38;;;31.60;45.60;;;;;;5071072;28;20574;-82
2022/11/23 05:18:54;;;;;;;0.60;0.30;;;31.80;45.60;;;;;;5067299;28;20192;-82
2022/11/23 05:21:27;;;;;;;1.27;0.20;;;31.30;45.80;;;;;;5070087;28;20199;-81
2022/11/23 05:23:58;;;;;;;1.45;0.47;;;30.70;47.00;;;;;;5061889;28;20228;-81
2022/11/23 05:26:29;;;;;;;1.20;0.30;;;30.40;47.10;;;;;;5061073;28;20192;-81
2022/11/23 05:29:01;;;;;;;1.75;0.50;;;30.30;47.40;;;;;;5072381;28;20666;-79
2022/11/23 05:31:32;;;;;;;2.13;0.60;;;30.80;49.90;;;;;;5072007;28;20199;-82
2022/11/23 05:34:06;;;;;;;2.60;0.70;;;30.30;51.70;;;;;;5070156;28;20210;-81
2022/11/23 05:36:37;;;;;;;1.90;0.73;;;29.90;53.60;;;;;;5068830;28;20227;-81
2022/11/23 05:39:08;;;;;;;2.05;0.70;;;29.80;54.60;;;;;;5066481;28;20564;-82
2022/11/23 05:41:39;;;;;;;2.30;0.40;;;30.30;54.10;;;;;;5059649;28;20575;-82
2022/11/23 05:44:12;;;;;;;1.73;0.57;;;30.10;52.80;;;;;;5069510;28;20216;-81
2022/11/23 05:46:43;;;;;;;3.10;0.47;;;30.30;52.50;;;;;;5070239;28;20200;-81
2022/11/23 05:49:14;;;;;;;0.70;0.50;;;30.50;51.90;;;;;;5070361;28;20661;-82
2022/11/23 05:51:45;;;;;;;0.73;0.40;;;31.00;51.60;;;;;;5068940;28;20196;-81
2022/11/23 05:54:15;;;;;;;2.88;0.60;;;30.90;51.80;;;;;;5068592;28;20228;-81
2022/11/23 05:56:46;;;;;;;3.45;0.60;;;30.80;52.10;;;;;;5068791;28;20231;-82
2022/11/23 05:59:19;;;;;;;1.45;0.52;;;30.90;52.20;;;;;;5056969;28;20198;-82
2022/11/23 06:01:50;;;;;;;2.25;0.63;;;30.20;52.10;;;;;;5068437;28;20203;-81
2022/11/23 06:04:20;;;;;;;1.02;0.30;;;29.50;54.00;;;;;;5063683;28;20226;-81
2022/11/23 06:06:53;;;;;;;1.83;0.40;;;29.60;54.40;;;;;;5070219;28;20227;-83
2022/11/23 06:09:24;;;;;;;1.13;0.43;;;30.10;53.70;;;;;;5070491;28;20199;-82
2022/11/23 06:11:55;;;;;;;2.20;0.22;;;30.40;54.10;;;;;;5080862;28;20251;-81
2022/11/23 06:14:28;;;;;;;0.93;0.40;;;30.80;52.90;;;;;;5072691;28;20330;-82
2022/11/23 06:16:59;;;;;;;1.23;0.30;;;30.80;53.20;;;;;;5080646;28;20291;-82
2022/11/23 06:19:29;;;;;;;0.60;0.30;;;30.90;52.80;;;;;;5082469;28;20196;-82
2022/11/23 06:22:00;;;;;;;0.70;0.40;;;31.00;52.90;;;;;;5073086;28;20203;-81
2022/11/23 06:24:31;;;;;;;2.70;0.30;;;30.90;53.00;;;;;;5072208;28;20588;-82
2022/11/23 06:27:02;;;;;;;0.55;0.30;;;31.00;53.20;;;;;;5063823;28;20203;-81
2022/11/23 06:29:34;;;;;;;1.65;0.40;;;31.40;52.60;;;;;;5072169;28;20196;-82
2022/11/23 06:32:07;;;;;;;1.48;0.47;;;31.70;51.70;;;;;;5063802;28;20211;-82
2022/11/23 06:34:38;;;;;;;2.70;0.50;;;31.70;51.30;;;;;;5071856;28;20195;-82
2022/11/23 06:37:09;;;;;;;2.13;0.50;;;32.00;51.60;;;;;;5070324;28;21048;-82
2022/11/23 06:39:40;;;;;;;1.45;0.60;;;32.10;52.20;;;;;;5072675;28;20199;-82
2022/11/23 06:42:12;;;;;;;1.98;1.30;;;32.50;51.30;;;;;;5072783;28;20189;-82
2022/11/23 06:44:45;;;;;;;1.83;0.43;;;32.70;50.80;;;;;;5071410;28;20235;-82
2022/11/23 06:47:16;;;;;;;1.70;0.50;;;33.20;51.20;;;;;;5072565;28;20212;-82
2022/11/23 06:49:46;;;;;;;1.55;0.77;;;33.30;51.60;;;;;;5054185;28;20211;-82
2022/11/23 06:52:17;;;;;;;2.90;0.52;;;33.10;52.20;;;;;;5054252;28;20204;-82
2022/11/23 06:54:48;;;;;;;1.35;0.60;;;33.30;52.60;;;;;;5052519;28;20232;-83
2022/11/23 06:57:20;;;;;;;5.05;0.80;;;33.60;52.10;;;;;;5052338;28;20287;-82
2022/11/23 06:59:53;;;;;;;1.35;0.60;;;33.60;51.70;;;;;;5052678;28;20185;-83
2022/11/23 07:02:24;;;;;;;3.90;0.60;;;33.40;50.30;;;;;;5071933;28;20200;-81
2022/11/23 07:04:55;;;;;;;5.38;0.65;;;33.20;50.00;;;;;;5065022;28;20300;-81
2022/11/23 07:07:26;;;;;;;1.88;0.75;;;33.30;49.60;;;;;;5062822;28;20319;-82
2022/11/23 07:09:57;;;;;;;1.88;0.50;;;33.50;49.80;;;;;;5055007;28;20191;-82
2022/11/23 07:12:28;;;;;;;3.88;0.70;;;33.50;49.20;;;;;;5055945;28;20203;-82
2022/11/23 07:15:01;;;;;;;3.30;0.55;;;33.30;49.60;;;;;;5056497;28;20207;-82
2022/11/23 07:17:31;;;;;;;2.10;0.60;;;33.30;49.80;;;;;;5053710;28;20710;-82
2022/11/23 07:20:02;;;;;;;3.38;0.50;;;33.10;49.00;;;;;;5069160;28;20204;-79
2022/11/23 07:25:49;;;;;;;2.63;0.70;;;33.20;49.10;;;;;;5057290;28;20227;-80
2022/11/23 07:28:20;;;;;;;2.22;0.60;;;33.10;49.10;;;;;;5076563;28;20204;-80
2022/11/23 07:30:53;;;;;;;2.70;0.82;;;32.80;50.00;;;;;;5072123;28;20249;-82
2022/11/23 07:33:24;;;;;;;1.80;0.80;;;32.80;50.20;;;;;;5072221;28;20204;-81
2022/11/23 07:35:55;;;;;;;2.53;0.80;;;32.90;50.30;;;;;;5072241;28;20545;-82
2022/11/23 07:38:26;;;;;;;6.57;0.95;;;32.80;50.60;;;;;;5057351;28;20625;-82
2022/11/23 07:40:57;;;;;;;4.80;0.95;;;32.70;50.70;;;;;;5054021;28;20307;-81
2022/11/23 07:43:28;;;;;;;4.00;1.13;;;32.40;50.80;;;;;;5068031;28;20216;-81
2022/11/23 07:46:01;;;;;;;2.92;0.80;;;32.10;51.60;;;;;;5072257;28;20195;-82
2022/11/23 07:48:32;;;;;;;2.90;0.90;;;31.60;52.10;;;;;;5070658;28;20198;-83
2022/11/23 07:51:03;;;;;;;2.50;1.10;;;31.10;53.30;;;;;;5060122;28;20227;-83
2022/11/23 07:53:35;;;;;;;6.28;0.93;;;30.50;54.30;;;;;;5059081;28;20594;-79
2022/11/23 07:56:05;;;;;;;1.65;0.93;;;29.90;55.50;;;;;;5070634;28;20229;-82
2022/11/23 07:58:36;;;;;;;4.97;0.90;;;29.20;57.30;;;;;;5051888;28;20730;-82
2022/11/23 08:01:10;;;;;;;4.70;0.77;;;28.70;58.50;;;;;;5063636;28;20225;-82
2022/11/23 08:03:41;;;;;;;4.20;1.05;;;28.30;59.80;;;;;;5071375;28;20990;-82
2022/11/23 08:06:13;;;;;;;2.15;1.17;;;27.90;60.60;;;;;;5053876;28;20697;-82
2022/11/23 08:08:44;;;;;;;6.43;1.00;;;27.50;62.60;;;;;;5087653;28;20195;-82
2022/11/23 08:11:17;;;;;;;3.50;0.70;;;27.10;63.20;;;;;;5093000;28;20195;-82
2022/11/23 08:13:47;;;;;;;2.75;1.00;;;26.90;64.20;;;;;;5071240;28;20272;-81
2022/11/23 08:16:21;;;;;;;4.40;1.17;;;26.50;65.00;;;;;;5049426;28;20200;-81
2022/11/23 08:18:52;;;;;;;4.13;1.15;;;26.20;66.80;;;;;;5048708;28;20203;-81
2022/11/23 08:21:24;;;;;;;2.55;1.08;;;26.00;67.90;;;;;;5073845;28;20192;-82
2022/11/23 08:23:59;;;;;;;2.55;1.13;;;25.80;68.70;;;;;;5070119;28;20220;-81
2022/11/23 08:26:30;;;;;;;5.15;1.38;;;25.60;70.40;;;;;;5053021;28;20191;-81
2022/11/23 08:29:01;;;;;;;4.05;1.20;;;25.50;71.40;;;;;;5068920;28;20200;-80
2022/11/23 08:31:34;;;;;;;3.25;1.40;;;25.30;72.60;;;;;;5065944;28;20291;-81
2022/11/23 08:34:04;;;;;;;5.97;1.30;;;25.20;73.30;;;;;;5052679;28;20212;-82
2022/11/23 08:36:35;;;;;;;4.13;1.20;;;25.20;73.80;;;;;;5053641;28;20188;-82
2022/11/23 08:39:06;;;;;;;4.00;1.45;;;25.10;74.20;;;;;;5059249;28;20249;-82
2022/11/23 08:41:37;;;;;;;5.53;1.50;;;25.00;74.60;;;;;;5065362;28;20278;-83
2022/11/23 08:44:09;;;;;;;6.05;1.52;;;24.90;75.00;;;;;;5068522;28;20243;-83
2022/11/23 08:46:42;;;;;;;5.88;1.50;;;24.90;75.40;;;;;;5061432;28;20250;-82
2022/11/23 08:49:13;;;;;;;7.32;1.65;;;24.80;76.40;;;;;;5063474;28;20191;-83
2022/11/23 08:51:43;;;;;;;2.47;1.30;;;24.70;77.20;;;;;;5053647;28;20201;-83
2022/11/23 08:54:15;;;;;;;7.72;1.70;;;24.70;77.80;;;;;;5052312;28;20595;-83
2022/11/23 08:56:46;;;;;;;4.18;1.77;;;24.60;77.80;;;;;;5067422;28;20560;-84
2022/11/23 08:59:18;;;;;;;7.68;1.70;;;24.60;78.10;;;;;;5059681;28;20192;-82
2022/11/23 09:01:50;;;;;;;5.43;1.60;;;24.50;78.40;;;;;;5068918;28;20582;-83
2022/11/23 09:04:21;;;;;;;5.70;1.50;;;24.40;78.70;;;;;;5067840;28;20223;-83
2022/11/23 09:06:52;;;;;;;5.70;1.90;;;24.30;79.10;;;;;;5066696;28;20196;-81
2022/11/23 09:09:23;;;;;;;4.32;1.55;;;24.30;79.60;;;;;;5064722;28;20665;-83
2022/11/23 09:11:53;;;;;;;3.38;1.20;;;24.30;79.90;;;;;;5060595;28;20196;-82
2022/11/23 09:14:26;;;;;;;4.93;1.60;;;24.30;79.40;;;;;;5064681;28;20204;-81
2022/11/23 09:16:59;;;;;;;2.22;1.13;;;24.20;80.80;;;;;;5059708;28;20651;-83
2022/11/23 09:19:30;;;;;;;3.05;1.10;;;24.10;79.80;;;;;;5050575;28;20189;-83
2022/11/23 09:22:00;;;;;;;5.75;1.50;;;24.10;79.70;;;;;;5058590;28;20652;-82
2022/11/23 09:24:31;;;;;;;2.20;0.90;;;24.00;78.80;;;;;;5055688;28;20250;-81
2022/11/23 09:27:02;;;;;;;4.82;1.10;;;24.00;78.70;;;;;;5062665;28;20214;-82
2022/11/23 09:29:33;;;;;;;2.40;0.88;;;23.90;78.90;;;;;;5063488;28;20195;-82
2022/11/23 09:32:07;;;;;;;3.97;1.10;;;23.90;79.30;;;;;;5064812;28;20596;-82
2022/11/23 09:34:38;;;;;;;2.50;0.90;;;23.80;80.30;;;;;;5066999;28;20275;-84
2022/11/23 09:37:08;;;;;;;2.30;1.10;;;23.80;81.00;;;;;;5067300;28;20188;-84
2022/11/23 09:39:39;;;;;;;4.32;1.10;;;23.80;81.40;;;;;;5052390;28;20188;-85
2022/11/23 09:42:32;;;;;;;3.75;1.00;;;23.80;82.60;;;;;;5056793;28;20299;-83
2022/11/23 09:45:15;;;;;;;3.03;0.80;;;23.70;82.10;;;;;;5050081;28;20576;-84
2022/11/23 09:48:06;;;;;;;3.17;0.70;;;23.70;82.10;;;;;;5062195;28;20642;-83
2022/11/23 09:50:47;;;;;;;2.15;0.60;;;23.70;81.30;;;;;;5068077;28;20196;-83
2022/11/23 09:53:23;;;;;;;2.05;0.80;;;23.70;81.10;;;;;;5060862;28;20270;-85
2022/11/23 09:55:57;;;;;;;2.42;0.95;;;23.70;80.80;;;;;;5052860;28;20638;-84
2022/11/23 09:58:35;;;;;;;8.43;4.18;;;23.60;80.40;;;;;;5056897;28;20196;-84
2022/11/23 10:01:09;;;;;;;3.90;1.23;;;23.60;81.60;;;;;;5039140;28;20598;-85
2022/11/23 10:03:44;;;;;;;2.83;1.40;;;23.50;82.40;;;;;;5042385;28;20283;-85
2022/11/23 10:06:21;;;;;;;2.28;1.25;;;23.40;82.60;;;;;;5032870;28;20652;-84
2022/11/23 10:09:03;;;;;;;2.03;1.17;;;23.40;81.50;;;;;;5033612;28;20201;-83
2022/11/23 10:11:58;;;;;;;3.53;0.90;;;23.40;81.10;;;;;;5033763;28;20201;-83
2022/11/23 10:14:50;;;;;;;1.23;1.00;;;23.40;83.60;;;;;;5034318;28;20208;-83
2022/11/23 10:17:30;;;;;;;1.48;0.65;;;23.20;83.70;;;;;;5037626;28;20276;-83
2022/11/23 10:20:22;;;;;;;1.77;0.80;;;23.10;83.90;;;;;;5034686;28;20629;-84
2022/11/23 10:23:08;;;;;;;1.98;0.85;;;23.20;84.70;;;;;;5038741;28;20202;-84
2022/11/23 10:25:46;;;;;;;3.60;0.90;;;23.20;85.10;;;;;;5040659;28;20627;-84
2022/11/23 10:28:20;;;;;;;3.53;1.08;;;23.20;87.10;;;;;;5036134;28;20217;-81
2022/11/23 10:30:57;;;;;;;1.88;0.77;;;23.10;87.50;;;;;;5048012;28;20208;-81
2022/11/23 10:33:32;;;;;;;3.42;1.10;;;23.00;87.60;;;;;;5052688;28;20198;-83
2022/11/23 10:36:05;;;;;;;2.50;0.90;;;22.90;89.60;;;;;;5033393;28;20279;-82
2022/11/23 10:38:37;;;;;;;2.80;1.08;;;23.00;89.90;;;;;;5063503;28;20228;-83
2022/11/23 10:41:11;;;;;;;3.80;0.85;;;23.00;91.50;;;;;;5057669;28;20562;-83
2022/11/23 10:43:47;;;;;;;5.85;1.20;;;23.00;93.20;;;;;;5042017;28;20288;-82
2022/11/23 10:46:32;;;;;;;2.10;0.70;;;23.00;93.50;;;;;;5065213;28;20263;-83
2022/11/23 10:49:17;;;;;;;3.47;1.00;;;22.90;93.00;;;;;;5059846;28;20204;-83
2022/11/23 10:52:07;;;;;;;1.48;0.80;;;23.00;93.80;;;;;;5071338;28;20283;-84
2022/11/23 10:54:40;;;;;;;4.05;1.13;;;23.00;94.20;;;;;;5070830;28;20433;-83
2022/11/23 10:57:33;;;;;;;1.85;0.95;;;23.00;94.90;;;;;;5069179;28;20196;-83
2022/11/23 11:00:08;;;;;;;3.47;1.10;;;22.90;94.90;;;;;;5071361;28;20204;-84
2022/11/23 11:02:44;;;;;;;2.78;1.20;;;23.00;95.30;;;;;;5070775;28;20191;-82
2022/11/23 11:05:34;;;;;;;5.80;1.05;;;22.90;95.60;;;;;;5084697;28;20254;-83
2022/11/23 11:08:19;;;;;;;3.78;1.10;;;22.90;93.40;;;;;;5090721;28;20222;-84
2022/11/23 11:10:59;;;;;;;1.63;0.90;;;22.80;94.40;;;;;;5077880;28;20275;-84
2022/11/23 11:13:31;;;;;;;3.22;0.73;;;22.80;93.90;;;;;;5081918;28;20184;-83
2022/11/23 11:16:08;;;;;;;2.00;0.70;;;22.80;93.20;;;;;;5079503;28;20192;-83
2022/11/23 11:18:40;;;;;;;1.40;0.70;;;22.90;93.30;;;;;;5090134;28;20191;-84
2022/11/23 11:21:21;;;;;;;2.67;0.80;;;22.90;92.70;;;;;;5081470;28;20201;-83
2022/11/23 11:24:01;;;;;;;1.88;0.73;;;22.90;93.00;;;;;;5059261;28;20189;-84
2022/11/23 11:26:33;;;;;;;1.58;0.57;;;22.90;93.10;;;;;;5071603;28;20195;-82
2022/11/23 11:29:08;;;;;;;2.17;0.73;;;23.00;93.40;;;;;;5084970;28;20275;-83
2022/11/23 11:31:57;;;;;;;2.03;0.80;;;22.90;93.20;;;;;;5078343;28;20270;-84
2022/11/23 11:34:31;;;;;;;3.13;0.70;;;23.00;93.20;;;;;;5073075;28;20203;-84
2022/11/23 11:37:11;;;;;;;2.08;0.80;;;22.90;93.00;;;;;;5072872;28;20282;-83
2022/11/23 11:39:49;;;;;;;2.75;0.80;;;22.90;92.90;;;;;;5055170;28;20287;-84
2022/11/23 11:42:25;;;;;;;2.88;1.23;;;23.00;93.50;;;;;;5057004;28;20185;-84
2022/11/23 11:45:03;;;;;;;2.45;1.25;;;22.90;94.30;;;;;;5079378;28;20237;-82
2022/11/23 11:47:40;;;;;;;2.95;0.90;;;22.90;95.10;;;;;;5060411;28;20220;-83
2022/11/23 11:50:26;;;;;;;3.45;1.15;;;22.90;95.70;;;;;;5068709;28;20298;-84
2022/11/23 11:53:02;;;;;;;2.17;0.90;;;22.80;94.60;;;;;;5066578;28;20234;-85
2022/11/23 11:55:48;;;;;;;4.15;1.20;;;22.80;95.70;;;;;;5080383;28;20241;-83
2022/11/23 11:58:21;;;;;;;4.13;1.55;;;22.90;95.60;;;;;;5079334;28;20188;-85
2022/11/23 12:00:55;;;;;;;4.03;1.33;;;22.90;95.40;;;;;;5069503;28;20284;-85
2022/11/23 12:03:39;;;;;;;4.05;1.50;;;22.90;95.90;;;;;;5056167;28;20224;-85
2022/11/23 12:06:19;;;;;;;5.72;1.95;;;22.90;98.10;;;;;;5064095;28;20233;-84
2022/11/23 12:08:57;;;;;;;9.02;1.80;;;22.80;99.90;;;;;;5069713;28;20299;-83
2022/11/23 12:11:31;;;;;;;7.55;1.67;;;22.80;99.90;;;;;;5056333;28;20270;-85
2022/11/23 12:14:07;;;;;;;6.95;1.80;;;22.70;99.90;;;;;;5055587;28;20279;-84
2022/11/23 12:16:54;;;;;;;6.35;1.83;;;22.60;99.90;;;;;;5062855;28;20227;-83
2022/11/23 12:19:33;;;;;;;5.22;1.48;;;22.50;99.90;;;;;;5057681;28;20285;-83
2022/11/23 12:22:27;;;;;;;7.45;1.40;;;22.50;99.90;;;;;;5064122;28;20713;-84
2022/11/23 12:25:16;;;;;;;5.75;1.42;;;22.40;99.90;;;;;;5065244;28;20224;-86
2022/11/23 12:28:02;;;;;;;8.95;1.80;;;22.30;99.90;;;;;;5067605;28;20227;-86
2022/11/23 12:30:40;;;;;;;5.97;1.17;;;22.30;99.90;;;;;;5056465;28;20195;-85
2022/11/23 12:33:31;;;;;;;8.95;1.40;;;22.30;99.90;;;;;;5059258;28;20212;-86
2022/11/23 12:36:35;;;;;;;4.57;1.30;;;22.20;99.90;;;;;;5073253;28;20287;-86
2022/11/23 12:39:20;;;;;;;5.13;1.25;;;22.20;99.90;;;;;;5067145;28;20212;-85
2022/11/23 12:42:01;;;;;;;5.45;2.00;;;22.10;99.90;;;;;;5056537;28;20221;-84
2022/11/23 12:45:06;;;;;;;6.80;1.23;;;22.10;99.90;;;;;;5060045;28;20639;-84
2022/11/23 12:47:48;;;;;;;9.93;1.63;;;22.00;99.90;;;;;;5066988;28;20220;-85
2022/11/23 12:50:28;;;;;;;6.53;1.50;;;22.00;99.90;;;;;;5067365;28;20192;-85
2022/11/23 12:53:10;;;;;;;10.40;1.92;;;22.00;99.90;;;;;;5070571;28;20677;-85
2022/11/23 12:55:55;;;;;;;5.45;1.50;;;22.00;99.90;;;;;;5073399;28;20184;-85
2022/11/23 12:58:29;;;;;;;8.93;2.00;;;22.00;99.90;;;;;;5065453;28;20230;-85
2022/11/23 13:01:07;;;;;;;7.10;1.83;;;22.00;99.90;;;;;;5071443;28;20209;-86
2022/11/23 13:04:12;;;;;;;8.07;1.73;;;22.00;99.90;;;;;;5058937;28;20196;-85
2022/11/23 13:07:28;;;;;;;6.88;1.70;;;22.00;99.90;;;;;;5051222;28;20355;-87
2022/11/23 13:10:14;;;;;;;11.05;2.30;;;21.90;99.90;;;;;;5051306;28;20200;-86
2022/11/23 13:13:10;;;;;;;8.30;1.83;;;21.90;99.90;;;;;;5057766;28;20278;-84
2022/11/23 13:15:56;;;;;;;8.55;1.80;;;21.80;99.90;;;;;;5057469;28;20192;-84
2022/11/23 13:18:59;;;;;;;9.98;2.08;;;21.90;99.90;;;;;;5041143;28;20200;-85
2022/11/23 13:21:37;;;;;;;9.90;2.65;;;21.80;99.90;;;;;;5072562;28;20617;-84
2022/11/23 13:24:28;;;;;;;8.80;2.20;;;21.80;99.90;;;;;;5065992;28;20202;-85
2022/11/23 13:27:32;;;;;;;9.30;2.13;;;21.70;99.90;;;;;;5074925;28;20192;-85
2022/11/23 13:30:21;;;;;;;9.90;2.28;;;21.70;99.90;;;;;;5067163;28;20567;-86